Terminal Aerodrome Forecast
Issued by NWS Charleston, WV

Current Version | Previous Version | Graphics & Text | Print | Product List | Glossary On
Versions: 1 2 3 4 5 6 7 8 9 10 11 12 13 14 15 16 17 18 19 20 21 22 23
000
FTUS41 KRLX 230500 RRA
TAFHTS
TAF
KHTS 230548Z 2306/2406 00000KT 6SM HZ BR SCT060
     FM231100 22004KT 5SM BR SCT050
     FM231200 23005KT 6SM HZ SCT050
     FM231600 24007KT P6SM VCTS SCT045CB
     FM232000 28007KT 5SM TSRA BR BKN040CB
     FM232300 30005KT 4SM TSRA BR BKN028CB
     FM240300 34004KT 5SM BR BKN020=

USA.gov is the U.S. government's official web portal to all federal, state and local government web resources and services.